Marystown, Canada
Current Conditions -  °F | °C
As of 10:00 AM on Thursday 23 Oct 2014 (Local Time) from LFVP Reporting Station
Broken Clouds Broken Clouds  
Wind Chill: 50°   Ceiling: 21000
Heat Index: 50°   Visibility: 6mi
Dew Point: 45°   Wind: 17mph
Humidity: 82%   Direction: 90°E
Pressure: 30.33"   Gusts: NA
Location:  47.17°N, 55.17°W
Report Text: LFVP 231200Z 09015KT 9999 SCT015 BKN210 10/07 Q1027 NOSIG
Loading
Personal Weather Stations






























Interactive Weather Map
Tropical Storm Tracking
New forecast layout! Learn more

10-Day Weather Forecast

Advertisements
Track Severe Weather on mobile